Time;durP1;ratioP1;P1;durP2;ratioP2;P2;SDS_P1;SDS_P2;PMS_P1;PMS_P2;Temp;Humidity;BMP_temperature;BMP_pressure;BME280_temperature;BME280_humidity;BME280_pressure;Samples;Min_cycle;Max_cycle;Signal;HPM_P1;HPM_P2
2022/02/20 00:01:34;;;;;;;3.08;1.88;;;;;;;2.10;55.19;100368.13;4981787;28;20033;-80
2022/02/20 00:03:59;;;;;;;3.13;1.80;;;;;;;2.10;55.38;100372.41;4995889;28;20309;-78
2022/02/20 00:06:26;;;;;;;3.95;2.20;;;;;;;2.13;55.45;100378.41;4980561;28;20173;-81
2022/02/20 00:08:53;;;;;;;4.53;2.28;;;;;;;2.14;55.53;100394.72;4979064;28;20140;-80
2022/02/20 00:11:19;;;;;;;4.05;2.90;;;;;;;2.15;55.33;100411.88;4981124;28;20129;-78
2022/02/20 00:13:45;;;;;;;3.83;2.17;;;;;;;2.13;55.27;100413.63;4980795;28;20038;-79
2022/02/20 00:16:11;;;;;;;3.30;2.95;;;;;;;2.11;55.39;100412.81;4980033;28;20573;-77
2022/02/20 00:18:36;;;;;;;5.15;2.22;;;;;;;2.15;55.37;100411.88;4994417;28;20034;-77
2022/02/20 00:21:03;;;;;;;5.47;2.95;;;;;;;2.10;55.36;100408.50;4980323;28;20113;-77
2022/02/20 00:23:29;;;;;;;3.65;2.22;;;;;;;2.12;55.28;100401.63;4991059;28;21569;-79
2022/02/20 00:25:55;;;;;;;4.97;2.22;;;;;;;2.19;55.50;100402.41;5001042;28;20036;-79
2022/02/20 00:28:21;;;;;;;4.05;2.20;;;;;;;2.15;55.25;100419.63;4993814;28;20053;-79
2022/02/20 00:30:46;;;;;;;7.50;3.25;;;;;;;2.09;55.40;100432.59;4982579;28;20125;-77
2022/02/20 00:33:13;;;;;;;5.88;3.10;;;;;;;2.14;55.26;100435.97;4999267;28;20069;-79
2022/02/20 00:35:39;;;;;;;7.28;4.60;;;;;;;2.08;55.32;100430.88;4995618;28;20456;-76
2022/02/20 00:38:08;;;;;;;6.43;3.58;;;;;;;2.06;55.35;100432.63;4975355;28;20042;-77
2022/02/20 00:40:34;;;;;;;7.55;3.60;;;;;;;1.96;55.27;100447.34;4978410;28;20068;-78
2022/02/20 00:43:00;;;;;;;5.13;2.63;;;;;;;1.90;55.31;100448.25;4992363;28;20041;-78
2022/02/20 00:45:27;;;;;;;6.18;3.47;;;;;;;1.86;55.10;100446.59;5003213;28;20037;-77
2022/02/20 00:47:54;;;;;;;5.53;2.90;;;;;;;1.80;55.78;100436.34;4978582;28;20050;-78
2022/02/20 00:50:23;;;;;;;4.65;2.20;;;;;;;1.80;55.52;100438.94;4978377;28;20027;-78
2022/02/20 00:52:49;;;;;;;5.55;2.85;;;;;;;1.79;55.88;100441.53;4938632;28;20054;-76
2022/02/20 00:55:14;;;;;;;4.60;2.22;;;;;;;1.80;55.84;100446.66;4987630;28;20131;-76
2022/02/20 00:57:40;;;;;;;4.78;1.92;;;;;;;1.81;55.85;100453.50;4982862;28;20057;-80
2022/02/20 01:00:09;;;;;;;3.90;2.55;;;;;;;1.87;56.00;100453.47;4983086;28;20029;-79
2022/02/20 01:02:34;;;;;;;4.47;1.75;;;;;;;1.86;55.83;100451.75;4964647;28;20500;-78
2022/02/20 01:05:00;;;;;;;6.07;2.55;;;;;;;1.77;56.45;100451.84;4991610;28;20053;-78
2022/02/20 01:07:27;;;;;;;4.60;2.50;;;;;;;1.79;55.37;100462.97;4982363;28;20048;-83
2022/02/20 01:09:53;;;;;;;3.83;2.72;;;;;;;1.64;56.12;100465.69;4979192;28;20047;-81
2022/02/20 01:12:19;;;;;;;4.93;3.55;;;;;;;1.67;55.81;100458.81;4978972;28;20048;-79
2022/02/20 01:14:44;;;;;;;2.15;1.67;;;;;;;1.51;56.17;100468.41;4983998;28;20479;-80
2022/02/20 01:17:11;;;;;;;3.97;2.03;;;;;;;1.60;56.13;100469.19;4945581;28;20078;-78
2022/02/20 01:19:37;;;;;;;5.45;2.72;;;;;;;1.56;56.18;100472.66;4976362;28;20038;-78
2022/02/20 01:22:36;;;;;;;4.13;2.45;;;;;;;1.62;55.91;100482.94;4979421;28;20126;-78
2022/02/20 01:25:03;;;;;;;3.33;2.00;;;;;;;1.71;55.97;100483.69;4968866;28;20037;-80
2022/02/20 01:27:29;;;;;;;5.93;2.53;;;;;;;1.73;55.81;100496.56;4979337;28;20120;-78
2022/02/20 01:29:54;;;;;;;3.47;2.38;;;;;;;1.72;55.92;100494.84;4984879;28;20029;-77
2022/02/20 01:32:20;;;;;;;3.95;2.22;;;;;;;1.72;55.73;100492.25;4988449;28;20433;-80
2022/02/20 01:34:45;;;;;;;3.15;2.22;;;;;;;1.69;55.56;100494.88;4977248;28;20125;-79
2022/02/20 01:37:11;;;;;;;4.68;2.17;;;;;;;1.62;55.80;100500.97;4979337;28;20156;-80
2022/02/20 01:39:36;;;;;;;5.53;2.30;;;;;;;1.64;55.83;100512.06;4981952;28;20041;-79
2022/02/20 01:42:07;;;;;;;4.80;2.10;;;;;;;1.52;56.18;100519.03;4987965;28;20120;-78
2022/02/20 01:44:34;;;;;;;4.72;1.65;;;;;;;1.42;56.45;100526.88;4977748;28;20406;-79
2022/02/20 01:47:09;;;;;;;3.33;1.98;;;;;;;1.67;56.35;100530.94;4986047;28;20038;-79
2022/02/20 01:49:38;;;;;;;3.47;2.15;;;;;;;1.63;56.29;100538.72;4985319;28;20033;-79
2022/02/20 01:52:05;;;;;;;3.90;1.75;;;;;;;1.67;56.35;100543.84;5003581;28;20061;-78
2022/02/20 01:54:31;;;;;;;3.15;1.73;;;;;;;1.73;56.36;100548.09;4981646;28;20038;-78
2022/02/20 01:56:57;;;;;;;3.90;1.80;;;;;;;1.63;56.63;100549.03;5001409;28;20034;-80
2022/02/20 01:59:50;;;;;;;;;;;;;;;1.80;56.11;100559.19;5005197;28;20046;-77
2022/02/20 02:02:36;;;;;;;4.95;1.73;;;;;;;1.52;56.65;100569.72;4988916;28;20414;-80
2022/02/20 02:05:15;;;;;;;2.70;1.83;;;;;;;1.28;57.16;100574.16;4983638;28;20042;-79
2022/02/20 02:07:43;;;;;;;3.90;2.38;;;;;;;1.16;57.39;100584.50;4952284;28;20158;-78
2022/02/20 02:10:29;;;;;;;4.15;2.47;;;;;;;1.42;57.08;100594.69;4994490;28;20038;-80
2022/02/20 02:13:14;;;;;;;4.40;1.45;;;;;;;1.41;57.13;100597.25;4985209;28;20042;-80
2022/02/20 02:15:54;;;;;;;4.38;1.90;;;;;;;1.18;57.71;100605.09;4983660;28;20033;-79
2022/02/20 02:18:39;;;;;;;2.45;1.40;;;;;;;1.43;57.20;100616.13;4983925;28;20034;-78
2022/02/20 02:21:23;;;;;;;5.72;2.17;;;;;;;1.49;57.12;100624.69;4995130;28;20068;-80
2022/02/20 02:23:59;;;;;;;2.25;1.60;;;;;;;1.44;57.38;100621.28;4999672;28;20077;-79
2022/02/20 02:26:43;;;;;;;6.28;1.38;;;;;;;1.15;57.50;100628.25;5007399;28;20100;-80
2022/02/20 02:29:27;;;;;;;5.32;1.60;;;;;;;1.03;58.25;100619.75;4998776;28;20558;-79
2022/02/20 02:31:53;;;;;;;7.93;2.20;;;;;;;1.20;58.20;100624.81;4999916;28;20033;-80
2022/02/20 02:34:20;;;;;;;4.22;1.80;;;;;;;1.33;57.84;100625.63;4992628;28;20036;-80
2022/02/20 02:36:52;;;;;;;4.50;1.38;;;;;;;1.50;57.24;100625.53;4995190;28;20030;-78
2022/02/20 02:39:18;;;;;;;3.25;1.48;;;;;;;1.59;57.08;100622.88;4996036;28;20040;-78
2022/02/20 02:41:44;;;;;;;2.70;1.00;;;;;;;1.76;56.76;100627.94;4975492;28;20061;-79
2022/02/20 02:44:10;;;;;;;2.65;1.65;;;;;;;1.61;57.11;100635.78;4964406;28;20049;-79
2022/02/20 02:46:35;;;;;;;2.20;1.33;;;;;;;1.55;56.79;100641.84;4986763;28;20037;-79
2022/02/20 02:49:06;;;;;;;3.92;2.22;;;;;;;1.39;57.69;100651.31;4977213;28;20037;-79
2022/02/20 02:51:32;;;;;;;3.00;2.22;;;;;;;1.20;57.92;100639.41;4976573;28;20038;-79
2022/02/20 02:53:58;;;;;;;5.75;1.88;;;;;;;1.38;57.91;100641.88;4958765;28;20065;-79
2022/02/20 02:56:25;;;;;;;2.45;0.95;;;;;;;1.61;57.03;100646.91;4983729;28;20045;-80
2022/02/20 02:58:50;;;;;;;6.47;1.90;;;;;;;1.51;57.27;100650.44;4977904;28;20052;-80
2022/02/20 03:01:17;;;;;;;1.67;0.95;;;;;;;1.35;57.72;100653.91;4980480;28;20049;-79
2022/02/20 03:03:43;;;;;;;2.63;1.45;;;;;;;1.58;57.38;100656.41;4978387;28;20045;-78
2022/02/20 03:06:14;;;;;;;3.03;1.35;;;;;;;1.32;57.89;100665.09;4987705;28;20329;-78
2022/02/20 03:08:40;;;;;;;6.63;1.73;;;;;;;1.06;58.62;100671.22;4988756;28;20386;-79
2022/02/20 03:11:06;;;;;;;4.70;1.52;;;;;;;1.20;58.31;100675.47;4980789;28;20085;-79
2022/02/20 03:13:34;;;;;;;7.18;1.45;;;;;;;1.30;58.27;100678.00;4993971;28;20030;-80
2022/02/20 03:16:03;;;;;;;3.47;1.60;;;;;;;1.24;57.54;100679.75;4963194;28;20554;-80
2022/02/20 03:18:31;;;;;;;2.13;0.73;;;;;;;0.86;59.03;100684.16;4976314;28;20045;-80
2022/02/20 03:20:59;;;;;;;2.30;0.68;;;;;;;1.16;58.20;100689.19;4967498;28;20183;-80
2022/02/20 03:23:24;;;;;;;4.22;1.30;;;;;;;1.42;57.60;100681.41;4980036;28;20503;-79
2022/02/20 03:25:56;;;;;;;4.00;1.63;;;;;;;1.43;57.66;100680.53;5000115;28;20108;-79
2022/02/20 03:28:22;;;;;;;2.17;0.93;;;;;;;1.44;57.42;100679.66;4983241;28;20041;-80
2022/02/20 03:30:56;;;;;;;2.60;0.90;;;;;;;1.47;57.17;100672.78;4977602;28;20060;-80
2022/02/20 03:33:22;;;;;;;2.17;0.90;;;;;;;1.63;56.67;100672.69;4981477;28;20068;-79
2022/02/20 03:35:48;;;;;;;4.50;1.00;;;;;;;1.18;57.51;100672.88;4994320;28;20409;-80
2022/02/20 03:38:16;;;;;;;3.55;0.77;;;;;;;1.37;57.07;100665.06;5000734;28;20037;-80
2022/02/20 03:40:42;;;;;;;2.03;0.75;;;;;;;1.45;57.40;100665.91;5002010;28;20302;-79
2022/02/20 03:43:08;;;;;;;1.33;0.85;;;;;;;1.23;57.79;100667.72;4979822;28;20084;-79
2022/02/20 03:45:45;;;;;;;5.18;0.52;;;;;;;1.24;57.87;100674.59;4964164;28;20030;-79
2022/02/20 03:48:11;;;;;;;1.20;0.40;;;;;;;1.51;57.21;100686.50;4997895;28;20042;-79
2022/02/20 03:50:42;;;;;;;1.93;0.57;;;;;;;1.58;56.87;100689.91;4981950;28;20037;-78
2022/02/20 03:53:09;;;;;;;2.45;0.70;;;;;;;1.47;57.48;100680.50;4989736;28;20042;-78
2022/02/20 03:55:35;;;;;;;1.25;0.50;;;;;;;1.55;56.85;100677.00;4981610;28;20085;-80
2022/02/20 03:58:00;;;;;;;1.52;0.70;;;;;;;1.49;57.20;100668.47;4976988;28;20127;-80
2022/02/20 04:00:41;;;;;;;1.90;0.70;;;;;;;1.55;56.96;100671.88;4983862;28;20034;-80
2022/02/20 04:03:30;;;;;;;1.38;0.63;;;;;;;1.71;56.05;100673.50;4990067;28;20046;-77
2022/02/20 04:05:56;;;;;;;2.40;0.70;;;;;;;1.47;56.73;100675.34;4998188;28;20056;-77
2022/02/20 04:08:23;;;;;;;1.75;0.73;;;;;;;1.41;56.71;100669.38;4954317;28;20057;-80
2022/02/20 04:10:53;;;;;;;2.15;0.63;;;;;;;1.29;56.86;100676.25;4987673;28;20128;-77
2022/02/20 04:13:40;;;;;;;1.90;0.80;;;;;;;1.44;56.45;100666.78;4963516;28;20073;-77
2022/02/20 04:16:10;;;;;;;3.03;1.13;;;;;;;1.37;56.58;100665.06;4977604;28;20132;-81
2022/02/20 04:18:38;;;;;;;2.90;0.90;;;;;;;1.21;56.86;100666.84;4979809;28;20045;-80
2022/02/20 04:21:17;;;;;;;2.05;0.80;;;;;;;0.95;57.73;100664.38;4977606;28;20029;-82
2022/02/20 04:23:43;;;;;;;4.25;0.80;;;;;;;1.06;57.44;100653.22;4981375;28;20132;-81
2022/02/20 04:26:10;;;;;;;4.53;0.80;;;;;;;0.95;58.07;100661.81;4998883;28;20121;-79
2022/02/20 04:28:36;;;;;;;1.50;0.40;;;;;;;1.04;57.57;100659.22;4982599;28;20115;-81
2022/02/20 04:31:03;;;;;;;1.85;0.70;;;;;;;0.74;58.65;100663.59;4965626;28;20030;-78
2022/02/20 04:33:29;;;;;;;1.45;0.50;;;;;;;0.99;58.42;100656.66;4981561;28;20608;-79
2022/02/20 04:35:58;;;;;;;1.33;0.50;;;;;;;1.14;58.00;100649.72;4981682;28;20030;-80
2022/02/20 04:38:24;;;;;;;2.17;0.68;;;;;;;0.84;58.96;100647.28;4987544;28;20080;-78
2022/02/20 04:40:50;;;;;;;1.10;0.40;;;;;;;1.15;58.86;100644.59;4990622;28;20298;-80
2022/02/20 04:43:22;;;;;;;1.83;0.70;;;;;;;1.27;57.59;100646.25;4990401;28;20122;-81
2022/02/20 04:45:53;;;;;;;2.10;0.45;;;;;;;1.20;58.47;100647.13;4992292;28;20101;-80
2022/02/20 04:48:21;;;;;;;1.52;0.47;;;;;;;1.62;56.80;100637.50;4985884;28;20078;-77
2022/02/20 04:50:47;;;;;;;5.22;0.60;;;;;;;1.07;57.67;100636.03;5003777;28;20068;-80
2022/02/20 04:53:15;;;;;;;3.55;0.55;;;;;;;1.41;56.99;100639.31;4999689;28;20060;-78
2022/02/20 04:55:46;;;;;;;1.85;0.77;;;;;;;1.25;57.38;100635.09;4986133;28;20347;-80
2022/02/20 04:58:12;;;;;;;1.83;0.40;;;;;;;0.45;60.08;100648.22;4985603;28;20162;-80
2022/02/20 05:00:39;;;;;;;1.73;0.47;;;;;;;0.96;58.39;100632.66;4990672;28;20139;-79
2022/02/20 05:03:13;;;;;;;1.95;0.60;;;;;;;0.91;58.45;100632.66;4992086;28;20412;-81
2022/02/20 05:05:58;;;;;;;2.25;0.50;;;;;;;0.90;58.54;100646.38;4996592;28;20099;-80
2022/02/20 05:08:52;;;;;;;8.52;1.10;;;;;;;0.58;59.76;100649.91;5002345;28;20054;-80
2022/02/20 05:11:32;;;;;;;3.45;0.80;;;;;;;0.87;58.95;100639.53;4998148;28;20029;-80
2022/02/20 05:14:02;;;;;;;2.35;0.98;;;;;;;0.86;59.00;100631.84;4973907;28;20087;-79
2022/02/20 05:16:30;;;;;;;2.75;0.90;;;;;;;0.80;59.20;100629.28;5010783;28;20466;-80
2022/02/20 05:18:56;;;;;;;4.25;0.50;;;;;;;1.01;58.09;100623.19;4990172;28;20072;-79
2022/02/20 05:21:22;;;;;;;1.63;0.60;;;;;;;0.82;58.93;100614.69;4990172;28;20034;-82
2022/02/20 05:23:50;;;;;;;2.05;0.60;;;;;;;1.04;58.14;100603.44;4981443;28;20048;-81
2022/02/20 05:26:15;;;;;;;3.13;1.02;;;;;;;1.27;57.29;100605.88;4977900;28;20038;-81
2022/02/20 05:28:41;;;;;;;3.00;1.13;;;;;;;1.11;57.88;100599.97;4999215;28;20299;-81
2022/02/20 05:31:12;;;;;;;2.87;0.70;;;;;;;1.04;57.98;100588.00;4980158;28;20037;-81
2022/02/20 05:33:40;;;;;;;5.68;0.95;;;;;;;0.79;58.80;100586.38;4989149;28;20037;-81
2022/02/20 05:36:08;;;;;;;5.10;1.00;;;;;;;0.72;59.03;100580.41;4978576;28;20022;-81
2022/02/20 05:38:42;;;;;;;2.35;0.77;;;;;;;0.44;60.20;100592.53;4979508;28;20044;-80
2022/02/20 05:41:07;;;;;;;3.50;1.67;;;;;;;0.80;58.71;100585.53;4975523;28;20287;-83
2022/02/20 05:43:34;;;;;;;1.92;0.90;;;;;;;0.36;60.55;100592.53;4980718;28;20416;-81
2022/02/20 05:46:00;;;;;;;3.92;1.15;;;;;;;0.57;59.68;100581.34;4978341;28;20033;-77
2022/02/20 05:48:31;;;;;;;3.80;1.77;;;;;;;0.04;60.89;100590.03;4978258;28;20069;-82
2022/02/20 05:51:13;;;;;;;3.67;1.42;;;;;;;0.42;60.24;100582.22;4998151;28;20258;-82
2022/02/20 05:53:47;;;;;;;10.52;2.03;;;;;;;0.30;60.30;100571.13;4979036;28;20042;-81
2022/02/20 05:56:15;;;;;;;3.95;1.60;;;;;;;-0.01;60.80;100566.06;4977712;28;20616;-81
2022/02/20 05:58:52;;;;;;;4.05;1.42;;;;;;;0.16;60.71;100559.16;4977539;28;20180;-82
2022/02/20 06:01:18;;;;;;;4.90;1.88;;;;;;;0.10;60.29;100551.47;4978680;28;20064;-82
2022/02/20 06:03:47;;;;;;;3.55;1.63;;;;;;;0.44;59.22;100546.25;4978453;28;20041;-81
2022/02/20 06:06:32;;;;;;;5.38;2.00;;;;;;;0.65;59.09;100542.72;4996715;28;20049;-81
2022/02/20 06:09:27;;;;;;;3.60;1.65;;;;;;;0.26;60.17;100540.28;4977080;28;20038;-81
2022/02/20 06:12:06;;;;;;;4.88;2.55;;;;;;;0.01;60.32;100536.03;4980458;28;20103;-81
2022/02/20 06:14:46;;;;;;;5.72;1.42;;;;;;;0.03;60.66;100526.63;4982120;28;20030;-82
2022/02/20 06:17:35;;;;;;;6.75;2.60;;;;;;;0.14;59.93;100514.59;4998035;28;20250;-81
2022/02/20 06:20:08;;;;;;;5.38;1.67;;;;;;;0.04;60.19;100518.06;5019359;28;20030;-80
2022/02/20 06:22:56;;;;;;;3.28;1.55;;;;;;;0.72;58.46;100517.81;4984737;28;20048;-82
2022/02/20 06:25:45;;;;;;;13.52;1.98;;;;;;;0.11;60.10;100503.50;4999376;28;20038;-82
2022/02/20 06:28:16;;;;;;;4.65;2.05;;;;;;;0.03;60.89;100511.19;4977749;28;20129;-82
2022/02/20 06:30:42;;;;;;;4.15;2.10;;;;;;;0.36;59.55;100493.97;4980500;28;20113;-80
2022/02/20 06:33:11;;;;;;;3.10;1.50;;;;;;;-0.35;61.47;100486.44;4980319;28;20042;-80
2022/02/20 06:35:37;;;;;;;3.50;2.40;;;;;;;0.17;60.16;100494.06;4981396;28;20021;-83
2022/02/20 06:38:05;;;;;;;2.78;1.48;;;;;;;0.06;60.47;100485.53;4964585;28;20046;-81
2022/02/20 06:40:32;;;;;;;4.07;1.80;;;;;;;0.31;59.66;100464.88;4978215;28;20132;-82
2022/02/20 06:42:59;;;;;;;6.45;1.45;;;;;;;0.07;59.71;100459.78;4977737;28;20033;-81
2022/02/20 06:45:27;;;;;;;6.70;2.45;;;;;;;0.54;58.67;100457.03;4978943;28;20129;-83
2022/02/20 06:48:04;;;;;;;2.75;1.15;;;;;;;0.71;58.41;100454.38;4975797;28;20046;-80
2022/02/20 06:50:48;;;;;;;2.30;1.05;;;;;;;0.48;58.90;100443.38;4989278;28;20060;-81
2022/02/20 06:53:32;;;;;;;2.40;1.25;;;;;;;0.67;57.77;100440.69;4988618;28;20045;-83
2022/02/20 06:56:21;;;;;;;8.45;1.15;;;;;;;0.20;59.18;100437.47;4980050;28;20493;-79
2022/02/20 06:58:47;;;;;;;3.38;1.95;;;;;;;0.62;57.95;100437.28;4999826;28;20044;-81
2022/02/20 07:01:12;;;;;;;4.57;1.85;;;;;;;0.44;58.55;100425.38;4977522;28;20033;-82
2022/02/20 07:03:38;;;;;;;8.65;1.35;;;;;;;0.65;58.28;100429.53;4980798;28;20125;-79
2022/02/20 07:06:04;;;;;;;2.50;0.98;;;;;;;0.80;57.65;100414.00;5001716;28;20041;-80
2022/02/20 07:08:31;;;;;;;2.15;1.13;;;;;;;0.96;57.29;100414.75;4976116;28;20034;-79
2022/02/20 07:10:56;;;;;;;7.15;1.42;;;;;;;0.24;59.57;100413.47;4982018;28;20053;-81
2022/02/20 07:13:22;;;;;;;2.55;1.25;;;;;;;0.92;57.62;100410.50;4977677;28;20041;-81
2022/02/20 07:15:48;;;;;;;4.60;1.77;;;;;;;0.51;58.88;100397.94;4979534;28;20029;-82
2022/02/20 07:18:14;;;;;;;6.05;1.90;;;;;;;0.56;58.78;100393.59;4975675;28;20550;-81
2022/02/20 07:20:42;;;;;;;3.22;1.45;;;;;;;0.57;59.02;100396.16;4979233;28;20097;-81
2022/02/20 07:23:08;;;;;;;2.70;1.88;;;;;;;0.93;57.85;100386.47;4979624;28;20038;-80
2022/02/20 07:25:34;;;;;;;2.65;1.48;;;;;;;0.17;60.23;100393.81;4978620;28;20492;-82
2022/02/20 07:27:59;;;;;;;5.60;1.42;;;;;;;0.15;60.08;100382.69;4976414;28;20084;-78
2022/02/20 07:30:28;;;;;;;3.65;1.55;;;;;;;-0.02;60.62;100380.19;4977687;28;20037;-79
2022/02/20 07:33:00;;;;;;;2.08;1.15;;;;;;;-0.08;60.08;100379.34;4930008;28;20469;-80
2022/02/20 07:35:26;;;;;;;;;;;;;;;-0.11;60.99;100364.81;4977071;28;20481;-78
2022/02/20 07:37:52;;;;;;;4.07;0.85;;;;;;;-0.36;61.64;100364.88;4985451;28;19921;-77
2022/02/20 07:40:18;;;;;;;2.63;1.17;;;;;;;-0.30;61.13;100352.88;4976614;28;20065;-80
2022/02/20 07:42:44;;;;;;;3.05;1.02;;;;;;;-0.29;61.31;100355.44;4977159;28;20057;-78
2022/02/20 07:45:11;;;;;;;1.75;1.15;;;;;;;0.13;60.20;100342.44;4978818;28;20030;-79
2022/02/20 07:47:51;;;;;;;1.98;0.93;;;;;;;-0.79;61.76;100320.50;4992527;28;20053;-81
2022/02/20 07:50:17;;;;;;;3.17;0.90;;;;;;;-0.36;61.66;100316.09;4973753;28;20096;-80
2022/02/20 07:52:42;;;;;;;1.95;0.80;;;;;;;-0.44;61.62;100316.97;4975657;28;20033;-80
2022/02/20 07:55:08;;;;;;;3.53;1.10;;;;;;;-0.03;60.40;100305.69;4978055;28;20044;-78
2022/02/20 07:57:35;;;;;;;2.97;0.95;;;;;;;-0.04;60.58;100293.69;4999774;28;20583;-78
2022/02/20 08:00:03;;;;;;;2.97;1.50;;;;;;;-0.23;61.29;100287.81;4971013;28;20029;-79
2022/02/20 08:02:38;;;;;;;3.08;1.17;;;;;;;0.02;60.86;100273.13;4991863;28;20044;-81
2022/02/20 08:05:04;;;;;;;3.03;1.27;;;;;;;-0.80;62.92;100275.16;4982668;28;20121;-80
2022/02/20 08:07:30;;;;;;;3.55;1.40;;;;;;;-0.59;62.64;100267.41;4979846;28;20046;-82
2022/02/20 08:09:55;;;;;;;3.65;0.88;;;;;;;0.05;61.07;100258.53;4983145;28;20062;-78
2022/02/20 08:12:21;;;;;;;3.90;1.20;;;;;;;0.12;60.71;100243.06;4978321;28;20046;-79
2022/02/20 08:14:46;;;;;;;2.38;0.80;;;;;;;0.43;59.53;100225.69;4980474;28;20041;-79
2022/02/20 08:17:12;;;;;;;1.75;0.80;;;;;;;0.01;60.73;100204.59;4980997;28;20040;-80
2022/02/20 08:19:38;;;;;;;4.50;1.65;;;;;;;0.43;59.58;100192.25;4990241;28;20334;-79
2022/02/20 08:22:05;;;;;;;1.90;0.80;;;;;;;0.26;60.04;100187.28;5001037;28;20053;-79
2022/02/20 08:24:30;;;;;;;2.95;1.15;;;;;;;0.13;59.83;100189.09;4986692;28;20030;-80
2022/02/20 08:26:56;;;;;;;2.90;0.98;;;;;;;-0.25;61.67;100187.66;4981637;28;20038;-80
2022/02/20 08:29:22;;;;;;;1.92;0.70;;;;;;;0.35;60.20;100176.06;4977897;28;20030;-79
2022/02/20 08:31:49;;;;;;;5.25;0.77;;;;;;;0.12;61.15;100173.69;4977743;28;20026;-81
2022/02/20 08:34:15;;;;;;;2.67;0.95;;;;;;;0.33;60.35;100150.38;4978857;28;20145;-80
2022/02/20 08:36:41;;;;;;;3.83;1.55;;;;;;;0.10;60.86;100163.44;4982089;28;20041;-79
2022/02/20 08:39:07;;;;;;;4.53;1.35;;;;;;;0.19;61.05;100153.06;4984636;28;20129;-81
2022/02/20 08:41:35;;;;;;;3.22;1.50;;;;;;;0.33;60.77;100140.09;4983872;28;20037;-81
2022/02/20 08:44:01;;;;;;;6.68;1.65;;;;;;;0.49;60.55;100145.94;4985534;28;20045;-80
2022/02/20 08:46:26;;;;;;;1.90;1.23;;;;;;;0.15;60.91;100141.09;4985684;28;20033;-78
2022/02/20 08:48:53;;;;;;;2.33;1.45;;;;;;;0.06;62.04;100148.91;5007421;28;20046;-80
2022/02/20 08:51:18;;;;;;;2.38;1.63;;;;;;;0.47;60.73;100147.66;5010585;28;20507;-79
2022/02/20 08:53:44;;;;;;;2.63;1.45;;;;;;;0.06;62.10;100138.63;5001045;28;20066;-82
2022/02/20 08:56:10;;;;;;;4.80;1.48;;;;;;;-0.35;63.89;100134.63;4984855;28;20034;-82
2022/02/20 08:58:36;;;;;;;2.47;1.70;;;;;;;0.43;62.15;100128.84;4981714;28;20041;-79
2022/02/20 09:01:02;;;;;;;3.38;1.98;;;;;;;0.62;61.01;100111.50;4985275;28;20033;-81
2022/02/20 09:03:31;;;;;;;3.53;1.98;;;;;;;1.02;60.30;100089.59;4983341;28;20123;-79
2022/02/20 09:05:57;;;;;;;3.83;1.95;;;;;;;0.64;61.68;100085.78;4982534;28;20616;-81
2022/02/20 09:08:23;;;;;;;5.00;2.08;;;;;;;0.58;62.50;100085.84;4975573;28;20054;-80
2022/02/20 09:10:48;;;;;;;5.40;2.10;;;;;;;1.00;60.75;100076.75;5017922;28;20096;-81
2022/02/20 09:13:15;;;;;;;4.28;2.25;;;;;;;0.52;62.59;100079.03;4966886;28;20145;-84
2022/02/20 09:15:41;;;;;;;5.53;2.17;;;;;;;0.90;61.62;100070.88;4991942;28;20041;-80
2022/02/20 09:18:08;;;;;;;5.35;1.58;;;;;;;0.49;63.39;100073.94;5008662;28;20045;-81
2022/02/20 09:20:34;;;;;;;2.78;1.40;;;;;;;0.94;61.99;100061.38;5006437;28;20030;-80
2022/02/20 09:23:00;;;;;;;6.50;2.20;;;;;;;0.44;63.95;100056.00;5002170;28;20259;-77
2022/02/20 09:25:26;;;;;;;5.97;1.40;;;;;;;0.73;62.84;100053.97;4993143;28;20037;-83
2022/02/20 09:27:52;;;;;;;5.18;1.88;;;;;;;0.81;62.66;100049.53;4991566;28;20041;-80
2022/02/20 09:30:17;;;;;;;6.32;1.83;;;;;;;0.92;62.62;100046.84;4989090;28;20443;-82
2022/02/20 09:32:44;;;;;;;2.47;1.42;;;;;;;1.29;62.57;100011.97;4989655;28;20037;-80
2022/02/20 09:35:11;;;;;;;7.18;2.35;;;;;;;1.23;62.61;100013.81;4989350;28;20114;-77
2022/02/20 09:37:37;;;;;;;2.95;1.80;;;;;;;1.16;62.72;99978.75;4990930;28;20049;-76
2022/02/20 09:40:05;;;;;;;3.60;2.22;;;;;;;1.42;63.01;99996.38;4980794;28;20041;-78
2022/02/20 09:42:30;;;;;;;4.80;2.58;;;;;;;1.39;63.93;99986.09;5005990;28;20045;-80
2022/02/20 09:44:56;;;;;;;5.57;3.85;;;;;;;1.31;63.78;99947.59;5005682;28;20056;-81
2022/02/20 09:47:27;;;;;;;3.92;1.60;;;;;;;1.70;63.04;99974.41;5008574;28;20150;-81
2022/02/20 09:49:59;;;;;;;5.10;2.35;;;;;;;1.56;63.82;99968.66;4991576;28;20582;-77
2022/02/20 09:52:26;;;;;;;5.65;1.92;;;;;;;1.38;64.86;99969.78;5004093;28;20061;-79
2022/02/20 09:54:51;;;;;;;3.10;1.67;;;;;;;1.80;63.38;99959.66;4992451;28;20030;-79
2022/02/20 09:57:17;;;;;;;4.40;2.70;;;;;;;1.99;63.72;99964.47;4969221;28;20074;-78
2022/02/20 09:59:42;;;;;;;3.67;1.83;;;;;;;2.40;62.61;99948.19;5002062;28;20538;-80
2022/02/20 10:02:10;;;;;;;4.82;2.08;;;;;;;2.45;62.87;99946.34;4980652;28;20183;-80
2022/02/20 10:04:47;;;;;;;3.30;2.03;;;;;;;2.73;62.54;99928.53;5011426;28;20076;-79
2022/02/20 10:07:31;;;;;;;2.55;1.60;;;;;;;2.18;64.04;99940.03;4996786;28;20068;-79
2022/02/20 10:09:58;;;;;;;3.05;1.67;;;;;;;2.56;63.52;99943.53;4995207;28;20072;-81
2022/02/20 10:12:26;;;;;;;2.75;1.65;;;;;;;2.81;63.11;99932.69;4993692;28;20298;-80
2022/02/20 10:14:52;;;;;;;5.20;2.20;;;;;;;2.87;62.46;99917.06;5014074;28;20495;-81
2022/02/20 10:17:21;;;;;;;7.60;2.33;;;;;;;2.46;64.72;99903.34;4991348;28;20045;-82
2022/02/20 10:20:25;;;;;;;2.95;2.17;;;;;;;2.65;64.45;99912.38;4955122;28;20039;-80
2022/02/20 10:23:17;;;;;;;3.25;1.52;;;;;;;3.14;63.13;99897.47;4951939;28;20102;-81
2022/02/20 10:26:11;;;;;;;4.97;2.38;;;;;;;2.86;64.46;99886.97;4995698;28;20053;-81
2022/02/20 10:29:09;;;;;;;3.10;1.83;;;;;;;2.60;66.13;99888.44;5006691;28;20092;-82
2022/02/20 10:31:45;;;;;;;4.07;1.75;;;;;;;2.97;65.39;99879.81;4978623;28;20112;-80
2022/02/20 10:34:15;;;;;;;4.82;2.25;;;;;;;3.22;64.92;99881.78;5007739;28;20051;-80
2022/02/20 10:36:55;;;;;;;2.75;1.58;;;;;;;3.71;64.26;99875.34;4993674;28;20038;-78
2022/02/20 10:39:22;;;;;;;5.55;1.73;;;;;;;2.94;66.93;99872.16;4990778;28;20056;-80
2022/02/20 10:41:49;;;;;;;3.60;1.77;;;;;;;3.62;64.95;99852.34;4990246;28;20130;-79
2022/02/20 10:44:15;;;;;;;2.95;1.67;;;;;;;3.57;65.75;99865.41;4996008;28;20085;-78
2022/02/20 10:46:40;;;;;;;3.80;1.48;;;;;;;3.81;64.83;99848.38;4995952;28;20479;-78
2022/02/20 10:49:06;;;;;;;2.58;1.38;;;;;;;4.09;63.70;99850.16;4996706;28;20037;-79
2022/02/20 10:51:40;;;;;;;3.75;1.52;;;;;;;3.86;65.26;99854.25;4989732;28;20064;-79
2022/02/20 10:54:05;;;;;;;3.95;1.42;;;;;;;3.97;64.90;99856.53;5007944;28;20570;-80
2022/02/20 10:56:42;;;;;;;1.65;1.08;;;;;;;3.90;65.79;99850.69;4988040;28;20030;-80
2022/02/20 10:59:09;;;;;;;2.88;1.42;;;;;;;4.24;64.60;99848.84;4986373;28;20137;-79
2022/02/20 11:01:35;;;;;;;2.65;1.20;;;;;;;4.21;64.56;99839.44;4986585;28;20037;-78
2022/02/20 11:04:10;;;;;;;3.10;1.13;;;;;;;3.84;66.35;99840.50;4978978;28;20033;-81
2022/02/20 11:06:36;;;;;;;3.47;1.17;;;;;;;4.11;66.42;99830.25;4981734;28;20037;-79
2022/02/20 11:09:02;;;;;;;2.33;1.33;;;;;;;4.24;65.58;99823.81;4983142;28;20516;-79
2022/02/20 11:11:36;;;;;;;2.80;0.77;;;;;;;4.40;65.42;99839.72;4983441;28;20033;-79
2022/02/20 11:14:04;;;;;;;4.93;0.90;;;;;;;3.83;67.23;99828.50;4980003;28;20183;-79
2022/02/20 11:16:34;;;;;;;1.48;0.55;;;;;;;4.05;67.01;99820.09;5001286;28;20319;-78
2022/02/20 11:19:04;;;;;;;2.47;0.60;;;;;;;4.77;65.47;99817.88;4984495;28;20069;-80
2022/02/20 11:21:37;;;;;;;4.55;0.68;;;;;;;4.53;65.76;99827.25;4983402;28;20461;-80
2022/02/20 11:24:05;;;;;;;2.22;0.90;;;;;;;4.13;67.45;99818.13;4986327;28;20041;-78
2022/02/20 11:26:35;;;;;;;4.18;0.60;;;;;;;4.60;66.41;99823.56;4979956;28;20088;-75
2022/02/20 11:29:01;;;;;;;13.18;1.30;;;;;;;4.64;66.09;99809.66;4974778;28;20336;-81
2022/02/20 11:31:28;;;;;;;10.27;1.08;;;;;;;4.96;65.13;99802.59;4984633;28;20279;-78
2022/02/20 11:33:55;;;;;;;12.05;1.63;;;;;;;4.70;66.32;99795.63;4974023;28;20042;-79
2022/02/20 11:36:27;;;;;;;8.63;1.38;;;;;;;4.47;66.77;99794.66;4957974;28;20129;-80
2022/02/20 11:39:10;;;;;;;13.02;2.85;;;;;;;4.69;66.75;99799.97;4974569;28;20033;-78
2022/02/20 11:41:38;;;;;;;18.15;2.30;;;;;;;4.71;66.70;99790.41;4975793;28;20084;-79
2022/02/20 11:44:14;;;;;;;14.90;1.73;;;;;;;5.40;64.56;99785.50;4972490;28;20066;-78
2022/02/20 11:46:51;;;;;;;8.95;1.10;;;;;;;4.67;66.91;99783.66;4956222;28;20329;-78